sensor_id;sensor_type;location;lat;lon;timestamp;pressure;altitude;pressure_sealevel;temperature;humidity
31225;BME280;17847;31.524;74.366;2023-02-22T00:01:36;98799.41;;;15.25;80.95
31225;BME280;17847;31.524;74.366;2023-02-22T00:04:52;98796.22;;;15.78;83.55
31225;BME280;17847;31.524;74.366;2023-02-22T00:07:35;98801.13;;;15.38;80.67
31225;BME280;17847;31.524;74.366;2023-02-22T00:10:26;98800.91;;;15.21;81.21
31225;BME280;17847;31.524;74.366;2023-02-22T00:13:10;98802.22;;;15.12;81.44
31225;BME280;17847;31.524;74.366;2023-02-22T00:16:00;98798.38;;;15.02;81.04
31225;BME280;17847;31.524;74.366;2023-02-22T00:18:43;98804.22;;;14.92;81.37
31225;BME280;17847;31.524;74.366;2023-02-22T00:21:31;98808.88;;;14.97;81.77
31225;BME280;17847;31.524;74.366;2023-02-22T00:24:14;98797.72;;;15.06;83.10
31225;BME280;17847;31.524;74.366;2023-02-22T00:27:05;98807.66;;;14.99;81.83
31225;BME280;17847;31.524;74.366;2023-02-22T00:29:48;98796.34;;;16.01;80.58
31225;BME280;17847;31.524;74.366;2023-02-22T00:32:37;98804.47;;;15.34;79.58
31225;BME280;17847;31.524;74.366;2023-02-22T00:35:32;98807.31;;;15.14;80.93
31225;BME280;17847;31.524;74.366;2023-02-22T00:38:16;98799.31;;;15.14;81.25
31225;BME280;17847;31.524;74.366;2023-02-22T00:41:08;98798.22;;;15.21;81.01
31225;BME280;17847;31.524;74.366;2023-02-22T00:43:52;98793.72;;;15.22;81.47
31225;BME280;17847;31.524;74.366;2023-02-22T00:46:41;98787.97;;;15.18;80.88
31225;BME280;17847;31.524;74.366;2023-02-22T00:49:24;98780.56;;;15.20;80.61
31225;BME280;17847;31.524;74.366;2023-02-22T00:52:15;98783.03;;;15.22;80.93
31225;BME280;17847;31.524;74.366;2023-02-22T00:54:57;98783.22;;;15.02;80.62
31225;BME280;17847;31.524;74.366;2023-02-22T00:57:47;98779.88;;;15.07;81.30
31225;BME280;17847;31.524;74.366;2023-02-22T01:00:40;98778.25;;;15.06;80.68
31225;BME280;17847;31.524;74.366;2023-02-22T01:03:29;98792.50;;;14.93;80.26
31225;BME280;17847;31.524;74.366;2023-02-22T01:06:15;98780.50;;;15.70;78.92
31225;BME280;17847;31.524;74.366;2023-02-22T01:09:04;98782.78;;;15.23;79.57
31225;BME280;17847;31.524;74.366;2023-02-22T01:11:49;98789.47;;;15.57;80.98
31225;BME280;17847;31.524;74.366;2023-02-22T01:14:42;98792.50;;;15.18;79.54
31225;BME280;17847;31.524;74.366;2023-02-22T01:17:24;98791.53;;;15.12;80.51
31225;BME280;17847;31.524;74.366;2023-02-22T01:20:15;98789.03;;;14.93;80.08
31225;BME280;17847;31.524;74.366;2023-02-22T01:23:01;98797.41;;;14.71;80.26
31225;BME280;17847;31.524;74.366;2023-02-22T01:25:55;98787.03;;;15.13;83.25
31225;BME280;17847;31.524;74.366;2023-02-22T01:28:31;98789.81;;;15.00;80.13
31225;BME280;17847;31.524;74.366;2023-02-22T01:31:27;98798.59;;;14.75;80.13
31225;BME280;17847;31.524;74.366;2023-02-22T01:34:16;98807.88;;;14.73;80.54
31225;BME280;17847;31.524;74.366;2023-02-22T01:37:00;98809.88;;;14.77;81.45
31225;BME280;17847;31.524;74.366;2023-02-22T01:39:49;98816.69;;;14.98;81.20
31225;BME280;17847;31.524;74.366;2023-02-22T01:42:32;98825.94;;;15.20;82.79
31225;BME280;17847;31.524;74.366;2023-02-22T01:48:14;98835.25;;;14.87;80.47
31225;BME280;17847;31.524;74.366;2023-02-22T01:53:54;98837.94;;;14.80;80.61
31225;BME280;17847;31.524;74.366;2023-02-22T01:57:21;98833.06;;;14.77;80.59
31225;BME280;17847;31.524;74.366;2023-02-22T02:00:09;98841.22;;;14.82;80.75
31225;BME280;17847;31.524;74.366;2023-02-22T02:03:04;98844.03;;;14.87;80.23
31225;BME280;17847;31.524;74.366;2023-02-22T02:05:50;98859.94;;;15.00;80.05
31225;BME280;17847;31.524;74.366;2023-02-22T02:11:48;98869.00;;;15.24;79.48
31225;BME280;17847;31.524;74.366;2023-02-22T02:14:40;98880.03;;;15.27;79.22
31225;BME280;17847;31.524;74.366;2023-02-22T02:17:23;98890.34;;;15.24;79.17
31225;BME280;17847;31.524;74.366;2023-02-22T02:20:53;98891.72;;;15.33;78.98
31225;BME280;17847;31.524;74.366;2023-02-22T02:27:11;98900.31;;;15.35;78.38
31225;BME280;17847;31.524;74.366;2023-02-22T02:30:03;98898.34;;;15.24;78.83
31225;BME280;17847;31.524;74.366;2023-02-22T02:33:28;98913.84;;;15.65;79.25
31225;BME280;17847;31.524;74.366;2023-02-22T02:42:10;98928.44;;;16.05;76.50
31225;BME280;17847;31.524;74.366;2023-02-22T02:44:56;98921.91;;;16.20;76.64
31225;BME280;17847;31.524;74.366;2023-02-22T02:47:58;98928.97;;;16.32;75.14
31225;BME280;17847;31.524;74.366;2023-02-22T02:50:47;98926.88;;;16.82;73.33
31225;BME280;17847;31.524;74.366;2023-02-22T02:53:39;98920.78;;;16.93;73.75
31225;BME280;17847;31.524;74.366;2023-02-22T02:56:23;98926.63;;;17.14;72.82
31225;BME280;17847;31.524;74.366;2023-02-22T02:59:37;98937.34;;;17.67;70.38
31225;BME280;17847;31.524;74.366;2023-02-22T03:02:36;98946.44;;;18.12;68.97
31225;BME280;17847;31.524;74.366;2023-02-22T03:11:36;98959.84;;;18.75;65.23
31225;BME280;17847;31.524;74.366;2023-02-22T03:14:34;98953.16;;;18.90;65.21
31225;BME280;17847;31.524;74.366;2023-02-22T03:17:37;98954.84;;;19.24;63.83
31225;BME280;17847;31.524;74.366;2023-02-22T03:20:45;98958.25;;;20.19;61.03
31225;BME280;17847;31.524;74.366;2023-02-22T03:23:50;98954.47;;;20.37;60.75
31225;BME280;17847;31.524;74.366;2023-02-22T03:26:55;98963.44;;;20.65;58.48
31225;BME280;17847;31.524;74.366;2023-02-22T03:29:50;98959.78;;;20.97;59.33
31225;BME280;17847;31.524;74.366;2023-02-22T03:32:38;98962.94;;;22.64;54.00
31225;BME280;17847;31.524;74.366;2023-02-22T03:35:40;98966.88;;;23.08;53.05
31225;BME280;17847;31.524;74.366;2023-02-22T03:38:26;98961.75;;;24.38;47.91
31225;BME280;17847;31.524;74.366;2023-02-22T03:41:21;98975.06;;;23.49;48.50
31225;BME280;17847;31.524;74.366;2023-02-22T03:44:09;98970.44;;;24.25;49.30
31225;BME280;17847;31.524;74.366;2023-02-22T03:47:12;98981.16;;;25.92;44.87
31225;BME280;17847;31.524;74.366;2023-02-22T03:50:04;98999.00;;;26.32;44.20
31225;BME280;17847;31.524;74.366;2023-02-22T03:53:03;99006.47;;;25.49;42.61
31225;BME280;17847;31.524;74.366;2023-02-22T03:55:40;99014.53;;;25.59;41.27
31225;BME280;17847;31.524;74.366;2023-02-22T03:58:40;99011.03;;;25.10;42.69
31225;BME280;17847;31.524;74.366;2023-02-22T04:01:23;99001.66;;;25.80;41.81
31225;BME280;17847;31.524;74.366;2023-02-22T04:04:12;99006.78;;;26.39;40.84
31225;BME280;17847;31.524;74.366;2023-02-22T04:06:55;99018.50;;;24.74;42.71
31225;BME280;17847;31.524;74.366;2023-02-22T04:09:44;99027.34;;;24.99;44.05
31225;BME280;17847;31.524;74.366;2023-02-22T04:12:21;99018.22;;;24.70;43.00
31225;BME280;17847;31.524;74.366;2023-02-22T04:15:19;99009.44;;;24.19;43.55
31225;BME280;17847;31.524;74.366;2023-02-22T04:18:02;99014.16;;;25.32;44.01
31225;BME280;17847;31.524;74.366;2023-02-22T04:20:58;99006.97;;;25.90;42.59
31225;BME280;17847;31.524;74.366;2023-02-22T04:23:46;99012.44;;;25.85;42.49
31225;BME280;17847;31.524;74.366;2023-02-22T04:26:34;99021.03;;;25.14;42.79
31225;BME280;17847;31.524;74.366;2023-02-22T04:29:18;99009.16;;;25.54;41.67
31225;BME280;17847;31.524;74.366;2023-02-22T04:32:07;99017.44;;;25.29;42.46
31225;BME280;17847;31.524;74.366;2023-02-22T04:34:56;99007.72;;;26.77;40.97
31225;BME280;17847;31.524;74.366;2023-02-22T04:37:38;99006.28;;;26.37;39.84
31225;BME280;17847;31.524;74.366;2023-02-22T04:40:28;99009.47;;;26.15;41.09
31225;BME280;17847;31.524;74.366;2023-02-22T04:43:11;99018.69;;;27.33;40.29
31225;BME280;17847;31.524;74.366;2023-02-22T04:46:08;99018.34;;;25.58;39.93
31225;BME280;17847;31.524;74.366;2023-02-22T04:48:44;99019.75;;;25.01;42.07
31225;BME280;17847;31.524;74.366;2023-02-22T04:51:43;99019.56;;;25.32;41.39
31225;BME280;17847;31.524;74.366;2023-02-22T04:54:23;99025.59;;;26.02;41.58
31225;BME280;17847;31.524;74.366;2023-02-22T04:57:18;99030.13;;;26.93;40.86
31225;BME280;17847;31.524;74.366;2023-02-22T04:59:54;99024.16;;;27.52;39.86
31225;BME280;17847;31.524;74.366;2023-02-22T05:02:50;99029.22;;;27.77;39.22
31225;BME280;17847;31.524;74.366;2023-02-22T05:05:25;99023.25;;;27.19;39.40
31225;BME280;17847;31.524;74.366;2023-02-22T05:08:21;99023.91;;;27.86;40.37
31225;BME280;17847;31.524;74.366;2023-02-22T05:10:57;99026.53;;;27.91;39.25
31225;BME280;17847;31.524;74.366;2023-02-22T05:13:52;99018.03;;;27.41;38.76
31225;BME280;17847;31.524;74.366;2023-02-22T05:16:28;99019.78;;;26.95;37.51
31225;BME280;17847;31.524;74.366;2023-02-22T05:19:23;99024.34;;;26.47;40.43
31225;BME280;17847;31.524;74.366;2023-02-22T05:21:59;99031.94;;;26.73;39.41
31225;BME280;17847;31.524;74.366;2023-02-22T05:24:55;99036.41;;;27.12;38.76
31225;BME280;17847;31.524;74.366;2023-02-22T05:27:38;99034.31;;;26.56;39.73
31225;BME280;17847;31.524;74.366;2023-02-22T05:30:29;99035.94;;;26.81;38.83
31225;BME280;17847;31.524;74.366;2023-02-22T05:33:12;99043.09;;;26.48;39.47
31225;BME280;17847;31.524;74.366;2023-02-22T05:36:10;99035.94;;;26.57;40.81
31225;BME280;17847;31.524;74.366;2023-02-22T05:38:52;99029.38;;;26.34;39.16
31225;BME280;17847;31.524;74.366;2023-02-22T05:41:41;99031.03;;;27.07;39.26
31225;BME280;17847;31.524;74.366;2023-02-22T05:44:17;99030.00;;;27.03;37.46
31225;BME280;17847;31.524;74.366;2023-02-22T05:47:12;99021.91;;;26.50;37.47
31225;BME280;17847;31.524;74.366;2023-02-22T05:49:54;99021.00;;;26.31;37.41
31225;BME280;17847;31.524;74.366;2023-02-22T05:52:45;99019.84;;;26.85;41.20
31225;BME280;17847;31.524;74.366;2023-02-22T05:55:23;99020.69;;;26.38;38.08
31225;BME280;17847;31.524;74.366;2023-02-22T05:58:18;99026.44;;;26.78;40.64
31225;BME280;17847;31.524;74.366;2023-02-22T06:01:01;99013.53;;;26.94;39.99
31225;BME280;17847;31.524;74.366;2023-02-22T06:03:50;99015.50;;;26.89;41.47
31225;BME280;17847;31.524;74.366;2023-02-22T06:06:33;99020.66;;;27.09;38.41
31225;BME280;17847;31.524;74.366;2023-02-22T06:09:21;99025.38;;;27.03;39.43
31225;BME280;17847;31.524;74.366;2023-02-22T06:12:04;99020.50;;;26.76;36.63
31225;BME280;17847;31.524;74.366;2023-02-22T06:14:53;99011.16;;;26.64;37.11
31225;BME280;17847;31.524;74.366;2023-02-22T06:17:36;99013.63;;;26.60;38.01
31225;BME280;17847;31.524;74.366;2023-02-22T06:20:26;99006.09;;;27.00;38.66
31225;BME280;17847;31.524;74.366;2023-02-22T06:23:09;99009.47;;;26.68;37.47
31225;BME280;17847;31.524;74.366;2023-02-22T06:25:57;99009.47;;;26.44;36.12
31225;BME280;17847;31.524;74.366;2023-02-22T06:28:40;99004.84;;;26.68;37.77
31225;BME280;17847;31.524;74.366;2023-02-22T06:31:28;99003.53;;;26.42;38.41
31225;BME280;17847;31.524;74.366;2023-02-22T06:34:20;98994.69;;;26.55;37.73
31225;BME280;17847;31.524;74.366;2023-02-22T06:37:02;99001.88;;;26.65;40.29
31225;BME280;17847;31.524;74.366;2023-02-22T06:39:51;98997.72;;;26.72;40.49
31225;BME280;17847;31.524;74.366;2023-02-22T06:42:26;98997.13;;;26.52;41.11
31225;BME280;17847;31.524;74.366;2023-02-22T06:45:22;98991.06;;;26.36;43.92
31225;BME280;17847;31.524;74.366;2023-02-22T06:47:57;98999.88;;;26.28;41.87
31225;BME280;17847;31.524;74.366;2023-02-22T06:50:53;98985.53;;;26.22;38.74
31225;BME280;17847;31.524;74.366;2023-02-22T06:53:35;98985.88;;;26.11;38.00
31225;BME280;17847;31.524;74.366;2023-02-22T06:56:24;98988.03;;;26.14;39.15
31225;BME280;17847;31.524;74.366;2023-02-22T06:59:06;98983.84;;;25.98;43.03
31225;BME280;17847;31.524;74.366;2023-02-22T07:01:55;98985.69;;;26.02;42.38
31225;BME280;17847;31.524;74.366;2023-02-22T07:04:38;98985.94;;;26.06;41.09
31225;BME280;17847;31.524;74.366;2023-02-22T07:07:27;98990.91;;;26.27;37.35
31225;BME280;17847;31.524;74.366;2023-02-22T07:10:19;98995.47;;;26.32;33.91
31225;BME280;17847;31.524;74.366;2023-02-22T07:13:08;98994.44;;;26.28;33.24
31225;BME280;17847;31.524;74.366;2023-02-22T07:15:43;98981.19;;;26.21;33.29
31225;BME280;17847;31.524;74.366;2023-02-22T07:18:40;98987.88;;;26.29;36.14
31225;BME280;17847;31.524;74.366;2023-02-22T07:21:22;98992.66;;;26.42;38.28
31225;BME280;17847;31.524;74.366;2023-02-22T07:24:12;98982.28;;;26.44;37.57
31225;BME280;17847;31.524;74.366;2023-02-22T07:26:54;98981.31;;;26.35;40.59
31225;BME280;17847;31.524;74.366;2023-02-22T07:29:44;98984.72;;;26.22;41.76
31225;BME280;17847;31.524;74.366;2023-02-22T07:32:25;98980.00;;;25.99;36.66
31225;BME280;17847;31.524;74.366;2023-02-22T07:35:19;98976.22;;;26.00;38.41
31225;BME280;17847;31.524;74.366;2023-02-22T07:38:03;98973.03;;;25.92;38.16
31225;BME280;17847;31.524;74.366;2023-02-22T07:40:53;98972.56;;;25.80;40.33
31225;BME280;17847;31.524;74.366;2023-02-22T07:43:36;98971.72;;;25.85;40.04
31225;BME280;17847;31.524;74.366;2023-02-22T07:46:25;98967.06;;;25.90;40.19
31225;BME280;17847;31.524;74.366;2023-02-22T07:49:08;98951.00;;;25.94;39.17
31225;BME280;17847;31.524;74.366;2023-02-22T07:51:57;98953.00;;;26.12;37.82
31225;BME280;17847;31.524;74.366;2023-02-22T07:54:33;98945.53;;;26.52;37.90
31225;BME280;17847;31.524;74.366;2023-02-22T07:57:28;98939.84;;;26.72;36.87
31225;BME280;17847;31.524;74.366;2023-02-22T08:00:10;98938.38;;;26.79;35.60
31225;BME280;17847;31.524;74.366;2023-02-22T08:03:04;98933.41;;;26.44;37.52
31225;BME280;17847;31.524;74.366;2023-02-22T08:05:50;98926.88;;;26.45;40.08
31225;BME280;17847;31.524;74.366;2023-02-22T08:08:40;98923.78;;;26.33;42.28
31225;BME280;17847;31.524;74.366;2023-02-22T08:11:24;98927.56;;;26.03;42.51
31225;BME280;17847;31.524;74.366;2023-02-22T08:14:15;98915.00;;;26.12;41.95
31225;BME280;17847;31.524;74.366;2023-02-22T08:16:58;98909.22;;;26.19;42.20
31225;BME280;17847;31.524;74.366;2023-02-22T08:19:48;98905.84;;;26.32;40.76
31225;BME280;17847;31.524;74.366;2023-02-22T08:22:31;98902.44;;;26.21;41.36
31225;BME280;17847;31.524;74.366;2023-02-22T08:25:22;98899.69;;;25.98;41.65
31225;BME280;17847;31.524;74.366;2023-02-22T08:28:09;98892.34;;;25.98;40.07
31225;BME280;17847;31.524;74.366;2023-02-22T08:30:57;98893.63;;;26.06;42.96
31225;BME280;17847;31.524;74.366;2023-02-22T08:33:40;98892.78;;;26.10;42.90
31225;BME280;17847;31.524;74.366;2023-02-22T08:36:41;98893.84;;;26.09;39.55
31225;BME280;17847;31.524;74.366;2023-02-22T08:39:23;98886.59;;;26.05;39.78
31225;BME280;17847;31.524;74.366;2023-02-22T08:42:12;98882.06;;;25.95;35.06
31225;BME280;17847;31.524;74.366;2023-02-22T08:44:48;98887.16;;;26.02;35.96
31225;BME280;17847;31.524;74.366;2023-02-22T08:47:43;98886.69;;;25.94;33.29
31225;BME280;17847;31.524;74.366;2023-02-22T08:50:29;98877.13;;;26.02;30.98
31225;BME280;17847;31.524;74.366;2023-02-22T08:53:18;98887.66;;;26.04;34.93
31225;BME280;17847;31.524;74.366;2023-02-22T08:56:01;98880.03;;;25.82;37.03
31225;BME280;17847;31.524;74.366;2023-02-22T08:58:49;98872.25;;;25.75;31.77
31225;BME280;17847;31.524;74.366;2023-02-22T09:01:31;98879.03;;;25.73;37.34
31225;BME280;17847;31.524;74.366;2023-02-22T09:04:27;98867.06;;;25.79;31.41
31225;BME280;17847;31.524;74.366;2023-02-22T09:07:02;98858.72;;;25.94;31.22
31225;BME280;17847;31.524;74.366;2023-02-22T09:09:58;98857.69;;;25.90;30.28
31225;BME280;17847;31.524;74.366;2023-02-22T09:12:40;98861.88;;;26.06;29.81
31225;BME280;17847;31.524;74.366;2023-02-22T09:15:29;98852.91;;;26.06;31.59
31225;BME280;17847;31.524;74.366;2023-02-22T09:18:07;98849.03;;;26.12;30.70
31225;BME280;17847;31.524;74.366;2023-02-22T09:21:15;98846.84;;;26.14;26.70
31225;BME280;17847;31.524;74.366;2023-02-22T09:23:51;98840.72;;;26.27;27.85
31225;BME280;17847;31.524;74.366;2023-02-22T09:26:55;98843.50;;;26.22;30.85
31225;BME280;17847;31.524;74.366;2023-02-22T09:29:51;98838.59;;;26.24;29.06
31225;BME280;17847;31.524;74.366;2023-02-22T09:32:32;98825.59;;;26.21;31.28
31225;BME280;17847;31.524;74.366;2023-02-22T09:35:21;98825.25;;;26.27;26.70
31225;BME280;17847;31.524;74.366;2023-02-22T09:38:04;98821.81;;;26.17;31.78
31225;BME280;17847;31.524;74.366;2023-02-22T09:44:01;98812.38;;;25.90;34.25
31225;BME280;17847;31.524;74.366;2023-02-22T09:46:54;98814.97;;;26.01;31.46
31225;BME280;17847;31.524;74.366;2023-02-22T09:50:06;98810.28;;;26.06;30.53
31225;BME280;17847;31.524;74.366;2023-02-22T09:53:39;98818.88;;;26.13;31.42
31225;BME280;17847;31.524;74.366;2023-02-22T09:56:19;98808.78;;;25.95;31.08
31225;BME280;17847;31.524;74.366;2023-02-22T09:59:22;98815.66;;;25.87;33.38
31225;BME280;17847;31.524;74.366;2023-02-22T10:02:25;98810.94;;;25.74;33.69
31225;BME280;17847;31.524;74.366;2023-02-22T10:05:35;98808.50;;;25.73;29.93
31225;BME280;17847;31.524;74.366;2023-02-22T10:08:18;98809.91;;;25.70;33.18
31225;BME280;17847;31.524;74.366;2023-02-22T10:17:35;98805.72;;;25.54;34.63
31225;BME280;17847;31.524;74.366;2023-02-22T10:26:29;98806.97;;;25.33;33.66
31225;BME280;17847;31.524;74.366;2023-02-22T10:32:40;98798.16;;;25.22;35.49
31225;BME280;17847;31.524;74.366;2023-02-22T10:35:38;98801.22;;;25.11;33.52
31225;BME280;17847;31.524;74.366;2023-02-22T10:38:26;98801.72;;;25.18;33.79
31225;BME280;17847;31.524;74.366;2023-02-22T10:41:20;98798.94;;;25.23;32.11
31225;BME280;17847;31.524;74.366;2023-02-22T10:43:58;98793.00;;;25.21;29.87
31225;BME280;17847;31.524;74.366;2023-02-22T10:46:55;98795.47;;;25.17;29.22
31225;BME280;17847;31.524;74.366;2023-02-22T10:49:52;98794.28;;;25.28;29.51
31225;BME280;17847;31.524;74.366;2023-02-22T10:52:44;98794.91;;;25.20;29.98
31225;BME280;17847;31.524;74.366;2023-02-22T10:55:26;98790.34;;;25.16;30.27
31225;BME280;17847;31.524;74.366;2023-02-22T10:58:15;98794.13;;;25.15;31.00
31225;BME280;17847;31.524;74.366;2023-02-22T11:00:57;98795.78;;;25.11;30.25
31225;BME280;17847;31.524;74.366;2023-02-22T11:04:11;98787.75;;;25.00;32.68
31225;BME280;17847;31.524;74.366;2023-02-22T11:12:44;98791.59;;;24.94;32.33
31225;BME280;17847;31.524;74.366;2023-02-22T11:15:35;98789.97;;;24.93;31.72
31225;BME280;17847;31.524;74.366;2023-02-22T11:18:30;98795.97;;;24.90;33.12
31225;BME280;17847;31.524;74.366;2023-02-22T11:21:21;98805.19;;;24.89;34.75
31225;BME280;17847;31.524;74.366;2023-02-22T11:24:07;98804.09;;;24.85;34.30
31225;BME280;17847;31.524;74.366;2023-02-22T11:26:58;98804.16;;;24.80;34.82
31225;BME280;17847;31.524;74.366;2023-02-22T11:29:41;98802.56;;;24.74;35.90
31225;BME280;17847;31.524;74.366;2023-02-22T11:32:31;98808.78;;;24.75;33.04
31225;BME280;17847;31.524;74.366;2023-02-22T11:35:34;98802.41;;;24.60;31.68
31225;BME280;17847;31.524;74.366;2023-02-22T11:38:31;98801.31;;;24.56;33.90
31225;BME280;17847;31.524;74.366;2023-02-22T11:41:26;98797.09;;;24.40;35.22
31225;BME280;17847;31.524;74.366;2023-02-22T11:44:30;98811.25;;;24.27;36.87
31225;BME280;17847;31.524;74.366;2023-02-22T11:47:13;98809.94;;;24.14;38.43
31225;BME280;17847;31.524;74.366;2023-02-22T11:50:10;98806.44;;;24.04;39.66
31225;BME280;17847;31.524;74.366;2023-02-22T11:53:11;98807.59;;;23.93;40.14
31225;BME280;17847;31.524;74.366;2023-02-22T11:59:37;98809.81;;;23.76;42.58
31225;BME280;17847;31.524;74.366;2023-02-22T12:02:37;98820.91;;;23.69;42.83
31225;BME280;17847;31.524;74.366;2023-02-22T12:15:35;98829.59;;;23.46;50.70
31225;BME280;17847;31.524;74.366;2023-02-22T12:18:29;98838.78;;;23.40;50.13
31225;BME280;17847;31.524;74.366;2023-02-22T12:21:21;98829.34;;;23.32;49.27
31225;BME280;17847;31.524;74.366;2023-02-22T12:24:17;98832.31;;;23.31;52.11
31225;BME280;17847;31.524;74.366;2023-02-22T12:27:23;98836.63;;;23.21;51.92
31225;BME280;17847;31.524;74.366;2023-02-22T12:33:12;98846.91;;;23.19;52.28
31225;BME280;17847;31.524;74.366;2023-02-22T12:36:02;98849.31;;;23.11;52.62
31225;BME280;17847;31.524;74.366;2023-02-22T12:39:57;98845.03;;;23.05;52.61
31225;BME280;17847;31.524;74.366;2023-02-22T12:48:34;98861.47;;;22.83;53.63
31225;BME280;17847;31.524;74.366;2023-02-22T12:55:08;98866.50;;;22.54;57.18
31225;BME280;17847;31.524;74.366;2023-02-22T12:58:22;98859.44;;;22.33;57.92
31225;BME280;17847;31.524;74.366;2023-02-22T13:01:13;98872.59;;;22.19;58.87
31225;BME280;17847;31.524;74.366;2023-02-22T13:04:05;98882.47;;;21.99;59.18
31225;BME280;17847;31.524;74.366;2023-02-22T13:16:26;98893.75;;;21.54;61.95
31225;BME280;17847;31.524;74.366;2023-02-22T13:22:23;98899.44;;;21.25;63.09
31225;BME280;17847;31.524;74.366;2023-02-22T13:29:37;98904.13;;;21.08;63.97
31225;BME280;17847;31.524;74.366;2023-02-22T13:53:57;98934.75;;;20.32;67.27
31225;BME280;17847;31.524;74.366;2023-02-22T13:56:56;98946.97;;;20.23;67.30
31225;BME280;17847;31.524;74.366;2023-02-22T13:59:38;98944.91;;;20.08;67.19
31225;BME280;17847;31.524;74.366;2023-02-22T14:05:53;98953.31;;;19.95;67.43
31225;BME280;17847;31.524;74.366;2023-02-22T14:08:42;98960.81;;;19.93;67.79
31225;BME280;17847;31.524;74.366;2023-02-22T14:14:19;98962.56;;;19.82;68.01
31225;BME280;17847;31.524;74.366;2023-02-22T14:17:28;98964.66;;;19.80;68.58
31225;BME280;17847;31.524;74.366;2023-02-22T14:32:01;98972.47;;;19.65;69.52
31225;BME280;17847;31.524;74.366;2023-02-22T14:34:58;98977.19;;;19.58;69.37
31225;BME280;17847;31.524;74.366;2023-02-22T14:37:58;98982.25;;;19.54;69.81
31225;BME280;17847;31.524;74.366;2023-02-22T14:40:50;98979.16;;;19.46;69.38
31225;BME280;17847;31.524;74.366;2023-02-22T14:43:35;98984.16;;;19.42;69.98
31225;BME280;17847;31.524;74.366;2023-02-22T14:46:27;98977.66;;;19.38;70.59
31225;BME280;17847;31.524;74.366;2023-02-22T14:49:16;98982.53;;;19.41;70.44
31225;BME280;17847;31.524;74.366;2023-02-22T14:52:23;98990.19;;;19.33;70.50
31225;BME280;17847;31.524;74.366;2023-02-22T14:58:10;98989.31;;;19.15;71.04
31225;BME280;17847;31.524;74.366;2023-02-22T15:00:55;98981.91;;;19.06;71.27
31225;BME280;17847;31.524;74.366;2023-02-22T15:03:43;98985.06;;;19.03;71.51
31225;BME280;17847;31.524;74.366;2023-02-22T15:06:41;98982.03;;;18.99;71.54
31225;BME280;17847;31.524;74.366;2023-02-22T15:09:30;98985.19;;;18.96;71.75
31225;BME280;17847;31.524;74.366;2023-02-22T15:12:26;98985.34;;;18.90;72.16
31225;BME280;17847;31.524;74.366;2023-02-22T15:15:19;98984.19;;;18.85;72.25
31225;BME280;17847;31.524;74.366;2023-02-22T15:18:03;98986.53;;;18.82;72.39
31225;BME280;17847;31.524;74.366;2023-02-22T15:20:56;98988.88;;;18.78;72.76
31225;BME280;17847;31.524;74.366;2023-02-22T15:26:44;99000.38;;;18.62;72.12
31225;BME280;17847;31.524;74.366;2023-02-22T15:29:40;99005.63;;;18.57;72.06
31225;BME280;17847;31.524;74.366;2023-02-22T15:32:39;99004.22;;;18.55;72.34
31225;BME280;17847;31.524;74.366;2023-02-22T15:35:43;99005.28;;;18.54;72.79
31225;BME280;17847;31.524;74.366;2023-02-22T15:38:47;99011.88;;;18.51;72.92
31225;BME280;17847;31.524;74.366;2023-02-22T15:41:32;99009.34;;;18.45;73.01
31225;BME280;17847;31.524;74.366;2023-02-22T15:44:21;99012.25;;;18.43;73.18
31225;BME280;17847;31.524;74.366;2023-02-22T15:47:04;99011.66;;;18.41;73.19
31225;BME280;17847;31.524;74.366;2023-02-22T15:55:45;99009.94;;;18.35;73.48
31225;BME280;17847;31.524;74.366;2023-02-22T15:58:29;99010.03;;;18.28;73.14
31225;BME280;17847;31.524;74.366;2023-02-22T16:01:19;99017.06;;;18.18;73.22
31225;BME280;17847;31.524;74.366;2023-02-22T16:04:01;99011.59;;;18.13;73.45
31225;BME280;17847;31.524;74.366;2023-02-22T16:06:52;99011.47;;;18.08;73.66
31225;BME280;17847;31.524;74.366;2023-02-22T16:09:49;99012.50;;;18.07;74.30
31225;BME280;17847;31.524;74.366;2023-02-22T16:12:38;99012.75;;;18.05;74.17
31225;BME280;17847;31.524;74.366;2023-02-22T16:15:20;99006.22;;;18.01;74.58
31225;BME280;17847;31.524;74.366;2023-02-22T16:21:20;99009.94;;;18.00;74.47
31225;BME280;17847;31.524;74.366;2023-02-22T16:24:25;99006.31;;;18.06;75.06
31225;BME280;17847;31.524;74.366;2023-02-22T16:27:17;99007.28;;;18.00;74.40
31225;BME280;17847;31.524;74.366;2023-02-22T16:33:05;99014.63;;;18.05;74.32
31225;BME280;17847;31.524;74.366;2023-02-22T16:35:57;99016.13;;;18.01;74.83
31225;BME280;17847;31.524;74.366;2023-02-22T16:38:40;99012.16;;;18.03;74.55
31225;BME280;17847;31.524;74.366;2023-02-22T16:41:30;99007.84;;;18.02;74.79
31225;BME280;17847;31.524;74.366;2023-02-22T16:44:13;99004.00;;;17.98;74.87
31225;BME280;17847;31.524;74.366;2023-02-22T16:47:08;99008.41;;;17.92;74.89
31225;BME280;17847;31.524;74.366;2023-02-22T16:49:51;99011.09;;;17.92;75.08
31225;BME280;17847;31.524;74.366;2023-02-22T16:52:40;99008.41;;;17.92;75.08
31225;BME280;17847;31.524;74.366;2023-02-22T16:55:23;99008.53;;;17.86;75.27
31225;BME280;17847;31.524;74.366;2023-02-22T16:58:14;99007.50;;;17.87;75.40
31225;BME280;17847;31.524;74.366;2023-02-22T17:00:57;99006.91;;;17.85;75.30
31225;BME280;17847;31.524;74.366;2023-02-22T17:03:45;99001.78;;;17.83;75.83
31225;BME280;17847;31.524;74.366;2023-02-22T17:06:28;99001.41;;;17.80;75.63
31225;BME280;17847;31.524;74.366;2023-02-22T17:09:24;98994.31;;;17.74;75.81
31225;BME280;17847;31.524;74.366;2023-02-22T17:12:07;98994.75;;;17.71;76.10
31225;BME280;17847;31.524;74.366;2023-02-22T17:14:57;98996.63;;;17.70;75.99
31225;BME280;17847;31.524;74.366;2023-02-22T17:17:42;99002.09;;;17.64;76.16
31225;BME280;17847;31.524;74.366;2023-02-22T17:20:31;98996.06;;;17.68;76.40